sensor_id;sensor_type;location;lat;lon;timestamp;P1;durP1;ratioP1;P2;durP2;ratioP2
54193;SDS011;40102;50.906;6.972;2024-03-08T00:00:07;18.63;;;8.90;;
54193;SDS011;40102;50.906;6.972;2024-03-08T00:02:36;16.98;;;8.93;;
54193;SDS011;40102;50.906;6.972;2024-03-08T00:05:08;15.95;;;9.02;;
54193;SDS011;40102;50.906;6.972;2024-03-08T00:07:34;17.70;;;9.57;;
54193;SDS011;40102;50.906;6.972;2024-03-08T00:10:01;14.98;;;8.38;;
54193;SDS011;40102;50.906;6.972;2024-03-08T00:12:27;16.45;;;8.82;;
54193;SDS011;40102;50.906;6.972;2024-03-08T00:14:53;18.58;;;9.60;;
54193;SDS011;40102;50.906;6.972;2024-03-08T00:17:20;17.77;;;10.05;;
54193;SDS011;40102;50.906;6.972;2024-03-08T00:19:47;17.92;;;10.07;;
54193;SDS011;40102;50.906;6.972;2024-03-08T00:22:15;15.73;;;9.35;;
54193;SDS011;40102;50.906;6.972;2024-03-08T00:24:41;15.10;;;8.65;;
54193;SDS011;40102;50.906;6.972;2024-03-08T00:27:07;17.15;;;10.45;;
54193;SDS011;40102;50.906;6.972;2024-03-08T00:29:35;18.05;;;9.60;;
54193;SDS011;40102;50.906;6.972;2024-03-08T00:32:00;16.70;;;9.57;;
54193;SDS011;40102;50.906;6.972;2024-03-08T00:34:26;17.63;;;10.02;;
54193;SDS011;40102;50.906;6.972;2024-03-08T00:36:52;18.83;;;9.98;;
54193;SDS011;40102;50.906;6.972;2024-03-08T00:39:20;17.00;;;9.48;;
54193;SDS011;40102;50.906;6.972;2024-03-08T00:41:46;18.58;;;10.18;;
54193;SDS011;40102;50.906;6.972;2024-03-08T00:44:12;20.23;;;10.93;;
54193;SDS011;40102;50.906;6.972;2024-03-08T00:46:38;20.33;;;10.50;;
54193;SDS011;40102;50.906;6.972;2024-03-08T00:49:03;19.40;;;10.38;;
54193;SDS011;40102;50.906;6.972;2024-03-08T00:51:29;16.08;;;9.50;;
54193;SDS011;40102;50.906;6.972;2024-03-08T00:53:55;21.33;;;10.68;;
54193;SDS011;40102;50.906;6.972;2024-03-08T00:56:20;16.60;;;9.55;;
54193;SDS011;40102;50.906;6.972;2024-03-08T00:58:45;17.23;;;9.38;;
54193;SDS011;40102;50.906;6.972;2024-03-08T01:01:12;18.13;;;10.43;;
54193;SDS011;40102;50.906;6.972;2024-03-08T01:03:42;17.33;;;10.30;;
54193;SDS011;40102;50.906;6.972;2024-03-08T01:06:08;19.52;;;10.65;;
54193;SDS011;40102;50.906;6.972;2024-03-08T01:08:33;19.65;;;10.40;;
54193;SDS011;40102;50.906;6.972;2024-03-08T01:10:58;20.23;;;10.75;;
54193;SDS011;40102;50.906;6.972;2024-03-08T01:13:23;18.27;;;9.63;;
54193;SDS011;40102;50.906;6.972;2024-03-08T01:15:49;17.42;;;10.00;;
54193;SDS011;40102;50.906;6.972;2024-03-08T01:18:14;20.13;;;10.48;;
54193;SDS011;40102;50.906;6.972;2024-03-08T01:20:39;21.83;;;10.90;;
54193;SDS011;40102;50.906;6.972;2024-03-08T01:23:06;21.23;;;10.70;;
54193;SDS011;40102;50.906;6.972;2024-03-08T01:25:32;17.35;;;9.82;;
54193;SDS011;40102;50.906;6.972;2024-03-08T01:28:00;19.08;;;10.38;;
54193;SDS011;40102;50.906;6.972;2024-03-08T01:30:25;19.55;;;10.27;;
54193;SDS011;40102;50.906;6.972;2024-03-08T01:32:51;19.92;;;10.40;;
54193;SDS011;40102;50.906;6.972;2024-03-08T01:35:16;20.20;;;10.80;;
54193;SDS011;40102;50.906;6.972;2024-03-08T01:37:41;22.55;;;11.43;;
54193;SDS011;40102;50.906;6.972;2024-03-08T01:40:07;19.20;;;9.38;;
54193;SDS011;40102;50.906;6.972;2024-03-08T01:42:33;17.50;;;9.57;;
54193;SDS011;40102;50.906;6.972;2024-03-08T01:45:02;19.63;;;10.65;;
54193;SDS011;40102;50.906;6.972;2024-03-08T01:47:29;18.80;;;10.45;;
54193;SDS011;40102;50.906;6.972;2024-03-08T01:49:57;18.40;;;10.55;;
54193;SDS011;40102;50.906;6.972;2024-03-08T01:52:24;21.13;;;10.13;;
54193;SDS011;40102;50.906;6.972;2024-03-08T01:54:51;19.90;;;10.90;;
54193;SDS011;40102;50.906;6.972;2024-03-08T01:57:17;18.85;;;10.25;;
54193;SDS011;40102;50.906;6.972;2024-03-08T01:59:42;19.40;;;10.07;;
54193;SDS011;40102;50.906;6.972;2024-03-08T02:02:08;21.98;;;10.75;;
54193;SDS011;40102;50.906;6.972;2024-03-08T02:04:36;20.33;;;10.95;;
54193;SDS011;40102;50.906;6.972;2024-03-08T02:07:03;19.20;;;10.18;;
54193;SDS011;40102;50.906;6.972;2024-03-08T02:09:30;22.23;;;11.10;;
54193;SDS011;40102;50.906;6.972;2024-03-08T02:11:55;19.50;;;10.20;;
54193;SDS011;40102;50.906;6.972;2024-03-08T02:14:22;18.40;;;10.02;;
54193;SDS011;40102;50.906;6.972;2024-03-08T02:16:47;21.52;;;10.90;;
54193;SDS011;40102;50.906;6.972;2024-03-08T02:19:13;24.35;;;11.15;;
54193;SDS011;40102;50.906;6.972;2024-03-08T02:21:38;22.35;;;11.48;;
54193;SDS011;40102;50.906;6.972;2024-03-08T02:24:04;18.60;;;10.57;;
54193;SDS011;40102;50.906;6.972;2024-03-08T02:26:31;21.30;;;10.73;;
54193;SDS011;40102;50.906;6.972;2024-03-08T02:28:56;19.48;;;10.85;;
54193;SDS011;40102;50.906;6.972;2024-03-08T02:31:21;20.95;;;10.88;;
54193;SDS011;40102;50.906;6.972;2024-03-08T02:33:47;19.50;;;10.57;;
54193;SDS011;40102;50.906;6.972;2024-03-08T02:36:14;26.45;;;11.88;;
54193;SDS011;40102;50.906;6.972;2024-03-08T02:38:41;23.30;;;11.40;;
54193;SDS011;40102;50.906;6.972;2024-03-08T02:41:06;20.15;;;10.88;;
54193;SDS011;40102;50.906;6.972;2024-03-08T02:43:32;21.90;;;11.07;;
54193;SDS011;40102;50.906;6.972;2024-03-08T02:45:58;18.83;;;10.07;;
54193;SDS011;40102;50.906;6.972;2024-03-08T02:48:24;25.80;;;11.85;;
54193;SDS011;40102;50.906;6.972;2024-03-08T02:50:50;20.40;;;10.60;;
54193;SDS011;40102;50.906;6.972;2024-03-08T02:53:16;19.58;;;10.65;;
54193;SDS011;40102;50.906;6.972;2024-03-08T02:55:43;21.05;;;10.63;;
54193;SDS011;40102;50.906;6.972;2024-03-08T02:58:09;22.02;;;11.10;;
54193;SDS011;40102;50.906;6.972;2024-03-08T03:00:35;20.73;;;11.00;;
54193;SDS011;40102;50.906;6.972;2024-03-08T03:03:01;20.85;;;10.73;;
54193;SDS011;40102;50.906;6.972;2024-03-08T03:05:28;19.40;;;10.13;;
54193;SDS011;40102;50.906;6.972;2024-03-08T03:07:55;25.27;;;11.32;;
54193;SDS011;40102;50.906;6.972;2024-03-08T03:10:20;21.00;;;10.52;;
54193;SDS011;40102;50.906;6.972;2024-03-08T03:12:47;19.63;;;10.70;;
54193;SDS011;40102;50.906;6.972;2024-03-08T03:15:13;22.05;;;10.68;;
54193;SDS011;40102;50.906;6.972;2024-03-08T03:17:39;20.77;;;10.32;;
54193;SDS011;40102;50.906;6.972;2024-03-08T03:20:08;22.17;;;10.90;;
54193;SDS011;40102;50.906;6.972;2024-03-08T03:22:39;22.67;;;11.23;;
54193;SDS011;40102;50.906;6.972;2024-03-08T03:25:06;21.67;;;10.27;;
54193;SDS011;40102;50.906;6.972;2024-03-08T03:27:32;18.80;;;10.13;;
54193;SDS011;40102;50.906;6.972;2024-03-08T03:29:58;19.80;;;10.10;;
54193;SDS011;40102;50.906;6.972;2024-03-08T03:32:44;19.88;;;10.25;;
54193;SDS011;40102;50.906;6.972;2024-03-08T03:35:12;21.95;;;10.95;;
54193;SDS011;40102;50.906;6.972;2024-03-08T03:37:37;19.08;;;10.40;;
54193;SDS011;40102;50.906;6.972;2024-03-08T03:40:05;22.70;;;10.50;;
54193;SDS011;40102;50.906;6.972;2024-03-08T03:42:30;22.70;;;11.15;;
54193;SDS011;40102;50.906;6.972;2024-03-08T03:44:56;21.25;;;11.38;;
54193;SDS011;40102;50.906;6.972;2024-03-08T03:47:21;19.70;;;10.30;;
54193;SDS011;40102;50.906;6.972;2024-03-08T03:49:47;24.33;;;11.02;;
54193;SDS011;40102;50.906;6.972;2024-03-08T03:52:12;22.85;;;11.07;;
54193;SDS011;40102;50.906;6.972;2024-03-08T03:54:37;20.45;;;10.90;;
54193;SDS011;40102;50.906;6.972;2024-03-08T03:57:02;19.58;;;9.75;;
54193;SDS011;40102;50.906;6.972;2024-03-08T03:59:28;19.20;;;9.95;;
54193;SDS011;40102;50.906;6.972;2024-03-08T04:01:54;22.95;;;10.55;;
54193;SDS011;40102;50.906;6.972;2024-03-08T04:04:19;20.55;;;10.63;;
54193;SDS011;40102;50.906;6.972;2024-03-08T04:06:49;21.48;;;11.02;;
54193;SDS011;40102;50.906;6.972;2024-03-08T04:09:16;21.52;;;11.30;;
54193;SDS011;40102;50.906;6.972;2024-03-08T04:11:44;22.58;;;11.07;;
54193;SDS011;40102;50.906;6.972;2024-03-08T04:14:09;22.30;;;11.20;;
54193;SDS011;40102;50.906;6.972;2024-03-08T04:16:35;22.05;;;11.18;;
54193;SDS011;40102;50.906;6.972;2024-03-08T04:19:00;23.50;;;11.20;;
54193;SDS011;40102;50.906;6.972;2024-03-08T04:21:29;21.35;;;10.68;;
54193;SDS011;40102;50.906;6.972;2024-03-08T04:23:55;21.85;;;10.25;;
54193;SDS011;40102;50.906;6.972;2024-03-08T04:26:21;22.70;;;11.75;;
54193;SDS011;40102;50.906;6.972;2024-03-08T04:28:47;20.58;;;11.23;;
54193;SDS011;40102;50.906;6.972;2024-03-08T04:31:12;19.40;;;10.32;;
54193;SDS011;40102;50.906;6.972;2024-03-08T04:33:37;23.75;;;11.02;;
54193;SDS011;40102;50.906;6.972;2024-03-08T04:36:03;24.45;;;11.27;;
54193;SDS011;40102;50.906;6.972;2024-03-08T04:38:29;20.20;;;11.02;;
54193;SDS011;40102;50.906;6.972;2024-03-08T04:40:55;20.80;;;10.15;;
54193;SDS011;40102;50.906;6.972;2024-03-08T04:43:21;22.85;;;11.23;;
54193;SDS011;40102;50.906;6.972;2024-03-08T04:45:50;21.90;;;11.20;;
54193;SDS011;40102;50.906;6.972;2024-03-08T04:48:16;25.27;;;11.38;;
54193;SDS011;40102;50.906;6.972;2024-03-08T04:50:41;23.15;;;11.32;;
54193;SDS011;40102;50.906;6.972;2024-03-08T04:53:06;23.90;;;10.82;;
54193;SDS011;40102;50.906;6.972;2024-03-08T04:55:33;21.10;;;10.80;;
54193;SDS011;40102;50.906;6.972;2024-03-08T04:57:59;23.75;;;11.25;;
54193;SDS011;40102;50.906;6.972;2024-03-08T05:00:24;24.02;;;11.18;;
54193;SDS011;40102;50.906;6.972;2024-03-08T05:02:50;22.42;;;10.73;;
54193;SDS011;40102;50.906;6.972;2024-03-08T05:05:18;23.17;;;11.20;;
54193;SDS011;40102;50.906;6.972;2024-03-08T05:07:44;22.88;;;10.98;;
54193;SDS011;40102;50.906;6.972;2024-03-08T05:10:10;25.00;;;11.75;;
54193;SDS011;40102;50.906;6.972;2024-03-08T05:12:36;23.83;;;11.43;;
54193;SDS011;40102;50.906;6.972;2024-03-08T05:15:04;23.02;;;10.57;;
54193;SDS011;40102;50.906;6.972;2024-03-08T05:17:30;26.02;;;11.43;;
54193;SDS011;40102;50.906;6.972;2024-03-08T05:19:55;21.08;;;11.15;;
54193;SDS011;40102;50.906;6.972;2024-03-08T05:22:21;25.70;;;11.80;;
54193;SDS011;40102;50.906;6.972;2024-03-08T05:24:46;21.48;;;10.73;;
54193;SDS011;40102;50.906;6.972;2024-03-08T05:27:12;25.60;;;11.43;;
54193;SDS011;40102;50.906;6.972;2024-03-08T05:29:38;21.38;;;10.85;;
54193;SDS011;40102;50.906;6.972;2024-03-08T05:32:03;26.15;;;12.20;;
54193;SDS011;40102;50.906;6.972;2024-03-08T05:34:29;24.55;;;12.35;;
54193;SDS011;40102;50.906;6.972;2024-03-08T05:36:54;25.00;;;12.30;;
54193;SDS011;40102;50.906;6.972;2024-03-08T05:39:20;23.70;;;11.25;;
54193;SDS011;40102;50.906;6.972;2024-03-08T05:41:45;24.23;;;11.70;;
54193;SDS011;40102;50.906;6.972;2024-03-08T05:44:11;25.52;;;12.07;;
54193;SDS011;40102;50.906;6.972;2024-03-08T05:46:37;25.80;;;12.30;;
54193;SDS011;40102;50.906;6.972;2024-03-08T05:49:03;23.85;;;10.57;;
54193;SDS011;40102;50.906;6.972;2024-03-08T05:51:32;25.48;;;11.45;;
54193;SDS011;40102;50.906;6.972;2024-03-08T05:53:59;20.98;;;10.23;;
54193;SDS011;40102;50.906;6.972;2024-03-08T05:56:27;19.70;;;10.57;;
54193;SDS011;40102;50.906;6.972;2024-03-08T05:58:54;20.73;;;11.27;;
54193;SDS011;40102;50.906;6.972;2024-03-08T06:01:19;21.70;;;10.48;;
54193;SDS011;40102;50.906;6.972;2024-03-08T06:03:44;19.75;;;9.90;;
54193;SDS011;40102;50.906;6.972;2024-03-08T06:06:16;21.58;;;10.38;;
54193;SDS011;40102;50.906;6.972;2024-03-08T06:08:42;22.83;;;11.23;;
54193;SDS011;40102;50.906;6.972;2024-03-08T06:11:08;22.67;;;11.10;;
54193;SDS011;40102;50.906;6.972;2024-03-08T06:13:34;25.58;;;11.45;;
54193;SDS011;40102;50.906;6.972;2024-03-08T06:16:00;24.38;;;11.98;;
54193;SDS011;40102;50.906;6.972;2024-03-08T06:18:29;22.55;;;11.52;;
54193;SDS011;40102;50.906;6.972;2024-03-08T06:20:55;25.70;;;11.07;;
54193;SDS011;40102;50.906;6.972;2024-03-08T06:23:20;52.65;;;9.07;;
54193;SDS011;40102;50.906;6.972;2024-03-08T06:25:46;25.45;;;11.15;;
54193;SDS011;40102;50.906;6.972;2024-03-08T06:28:12;22.10;;;10.90;;
54193;SDS011;40102;50.906;6.972;2024-03-08T06:30:39;25.27;;;11.18;;
54193;SDS011;40102;50.906;6.972;2024-03-08T06:33:04;23.75;;;10.32;;
54193;SDS011;40102;50.906;6.972;2024-03-08T06:35:30;20.35;;;10.70;;
54193;SDS011;40102;50.906;6.972;2024-03-08T06:37:57;20.13;;;10.10;;
54193;SDS011;40102;50.906;6.972;2024-03-08T06:40:22;20.33;;;11.18;;
54193;SDS011;40102;50.906;6.972;2024-03-08T06:42:48;21.02;;;10.52;;
54193;SDS011;40102;50.906;6.972;2024-03-08T06:45:13;20.88;;;10.98;;
54193;SDS011;40102;50.906;6.972;2024-03-08T06:47:44;19.98;;;11.07;;
54193;SDS011;40102;50.906;6.972;2024-03-08T06:50:09;21.77;;;11.90;;
54193;SDS011;40102;50.906;6.972;2024-03-08T06:52:34;20.42;;;11.50;;
54193;SDS011;40102;50.906;6.972;2024-03-08T06:55:00;22.73;;;11.68;;
54193;SDS011;40102;50.906;6.972;2024-03-08T06:57:26;22.98;;;12.02;;
54193;SDS011;40102;50.906;6.972;2024-03-08T06:59:52;21.33;;;11.75;;
54193;SDS011;40102;50.906;6.972;2024-03-08T07:02:17;19.92;;;11.18;;
54193;SDS011;40102;50.906;6.972;2024-03-08T07:04:42;22.10;;;11.40;;
54193;SDS011;40102;50.906;6.972;2024-03-08T07:07:08;25.73;;;12.45;;
54193;SDS011;40102;50.906;6.972;2024-03-08T07:09:35;22.50;;;11.88;;
54193;SDS011;40102;50.906;6.972;2024-03-08T07:12:00;26.00;;;12.68;;
54193;SDS011;40102;50.906;6.972;2024-03-08T07:14:26;25.15;;;12.65;;
54193;SDS011;40102;50.906;6.972;2024-03-08T07:16:52;26.65;;;13.13;;
54193;SDS011;40102;50.906;6.972;2024-03-08T07:19:17;25.75;;;12.55;;
54193;SDS011;40102;50.906;6.972;2024-03-08T07:21:44;24.15;;;11.63;;
54193;SDS011;40102;50.906;6.972;2024-03-08T07:24:10;23.58;;;12.02;;
54193;SDS011;40102;50.906;6.972;2024-03-08T07:26:41;20.30;;;10.93;;
54193;SDS011;40102;50.906;6.972;2024-03-08T07:29:07;26.50;;;12.00;;
54193;SDS011;40102;50.906;6.972;2024-03-08T07:31:35;23.73;;;12.05;;
54193;SDS011;40102;50.906;6.972;2024-03-08T07:34:15;24.27;;;11.20;;
54193;SDS011;40102;50.906;6.972;2024-03-08T07:36:41;24.33;;;11.25;;
54193;SDS011;40102;50.906;6.972;2024-03-08T07:39:07;22.80;;;11.40;;
54193;SDS011;40102;50.906;6.972;2024-03-08T07:41:36;25.42;;;11.70;;
54193;SDS011;40102;50.906;6.972;2024-03-08T07:44:02;22.70;;;10.90;;
54193;SDS011;40102;50.906;6.972;2024-03-08T07:46:28;24.67;;;11.32;;
54193;SDS011;40102;50.906;6.972;2024-03-08T07:48:54;26.65;;;12.13;;
54193;SDS011;40102;50.906;6.972;2024-03-08T07:51:19;25.85;;;12.32;;
54193;SDS011;40102;50.906;6.972;2024-03-08T07:53:45;28.63;;;12.43;;
54193;SDS011;40102;50.906;6.972;2024-03-08T07:56:11;21.58;;;10.65;;
54193;SDS011;40102;50.906;6.972;2024-03-08T07:58:38;19.73;;;10.05;;
54193;SDS011;40102;50.906;6.972;2024-03-08T08:01:05;23.25;;;11.48;;
54193;SDS011;40102;50.906;6.972;2024-03-08T08:03:31;22.45;;;10.93;;
54193;SDS011;40102;50.906;6.972;2024-03-08T08:05:56;24.00;;;11.75;;
54193;SDS011;40102;50.906;6.972;2024-03-08T08:08:21;29.92;;;11.93;;
54193;SDS011;40102;50.906;6.972;2024-03-08T08:10:47;24.58;;;11.38;;
54193;SDS011;40102;50.906;6.972;2024-03-08T08:13:12;22.10;;;11.30;;
54193;SDS011;40102;50.906;6.972;2024-03-08T08:15:38;26.23;;;12.30;;
54193;SDS011;40102;50.906;6.972;2024-03-08T08:18:03;22.45;;;11.00;;
54193;SDS011;40102;50.906;6.972;2024-03-08T08:20:30;19.92;;;10.35;;
54193;SDS011;40102;50.906;6.972;2024-03-08T08:22:56;20.70;;;10.52;;
54193;SDS011;40102;50.906;6.972;2024-03-08T08:25:24;25.02;;;10.75;;
54193;SDS011;40102;50.906;6.972;2024-03-08T08:27:49;19.67;;;10.13;;
54193;SDS011;40102;50.906;6.972;2024-03-08T08:30:15;20.90;;;10.45;;
54193;SDS011;40102;50.906;6.972;2024-03-08T08:32:43;23.88;;;11.25;;
54193;SDS011;40102;50.906;6.972;2024-03-08T08:35:08;21.48;;;10.27;;
54193;SDS011;40102;50.906;6.972;2024-03-08T08:37:34;26.05;;;12.07;;
54193;SDS011;40102;50.906;6.972;2024-03-08T08:40:03;21.65;;;11.18;;
54193;SDS011;40102;50.906;6.972;2024-03-08T08:42:35;28.23;;;11.80;;
54193;SDS011;40102;50.906;6.972;2024-03-08T08:45:02;21.23;;;10.68;;
54193;SDS011;40102;50.906;6.972;2024-03-08T08:47:28;21.10;;;10.48;;
54193;SDS011;40102;50.906;6.972;2024-03-08T08:49:53;21.95;;;10.35;;
54193;SDS011;40102;50.906;6.972;2024-03-08T08:52:19;20.25;;;10.50;;
54193;SDS011;40102;50.906;6.972;2024-03-08T08:54:44;23.33;;;11.85;;
54193;SDS011;40102;50.906;6.972;2024-03-08T08:57:10;23.10;;;10.93;;
54193;SDS011;40102;50.906;6.972;2024-03-08T08:59:35;21.33;;;11.52;;
54193;SDS011;40102;50.906;6.972;2024-03-08T09:02:06;22.15;;;10.98;;
54193;SDS011;40102;50.906;6.972;2024-03-08T09:04:33;22.70;;;10.63;;
54193;SDS011;40102;50.906;6.972;2024-03-08T09:07:00;22.60;;;10.75;;
54193;SDS011;40102;50.906;6.972;2024-03-08T09:09:26;17.10;;;9.65;;
54193;SDS011;40102;50.906;6.972;2024-03-08T09:11:52;21.13;;;10.10;;
54193;SDS011;40102;50.906;6.972;2024-03-08T09:14:17;21.80;;;10.25;;
54193;SDS011;40102;50.906;6.972;2024-03-08T09:16:43;20.40;;;10.02;;
54193;SDS011;40102;50.906;6.972;2024-03-08T09:19:08;24.13;;;10.35;;
54193;SDS011;40102;50.906;6.972;2024-03-08T09:21:36;21.13;;;10.40;;
54193;SDS011;40102;50.906;6.972;2024-03-08T09:24:02;18.27;;;9.95;;
54193;SDS011;40102;50.906;6.972;2024-03-08T09:26:27;20.08;;;9.52;;
54193;SDS011;40102;50.906;6.972;2024-03-08T09:28:52;17.77;;;9.55;;
54193;SDS011;40102;50.906;6.972;2024-03-08T09:31:20;17.75;;;9.50;;
54193;SDS011;40102;50.906;6.972;2024-03-08T09:33:45;20.52;;;10.00;;
54193;SDS011;40102;50.906;6.972;2024-03-08T09:36:11;19.63;;;9.57;;
54193;SDS011;40102;50.906;6.972;2024-03-08T09:38:39;19.23;;;9.57;;
54193;SDS011;40102;50.906;6.972;2024-03-08T09:41:04;20.17;;;9.35;;
54193;SDS011;40102;50.906;6.972;2024-03-08T09:43:30;18.08;;;8.88;;
54193;SDS011;40102;50.906;6.972;2024-03-08T09:45:56;20.05;;;9.75;;
54193;SDS011;40102;50.906;6.972;2024-03-08T09:48:25;21.02;;;9.48;;
54193;SDS011;40102;50.906;6.972;2024-03-08T09:50:54;19.70;;;9.70;;
54193;SDS011;40102;50.906;6.972;2024-03-08T09:53:20;20.23;;;9.65;;
54193;SDS011;40102;50.906;6.972;2024-03-08T09:55:47;16.85;;;8.85;;
54193;SDS011;40102;50.906;6.972;2024-03-08T09:58:14;18.55;;;8.85;;
54193;SDS011;40102;50.906;6.972;2024-03-08T10:00:53;16.50;;;8.20;;
54193;SDS011;40102;50.906;6.972;2024-03-08T10:03:19;15.25;;;8.25;;
54193;SDS011;40102;50.906;6.972;2024-03-08T10:05:44;15.90;;;8.02;;
54193;SDS011;40102;50.906;6.972;2024-03-08T10:08:10;15.57;;;7.97;;
54193;SDS011;40102;50.906;6.972;2024-03-08T10:10:36;15.73;;;7.72;;
54193;SDS011;40102;50.906;6.972;2024-03-08T10:13:05;13.57;;;7.32;;
54193;SDS011;40102;50.906;6.972;2024-03-08T10:15:39;14.98;;;7.47;;
54193;SDS011;40102;50.906;6.972;2024-03-08T10:18:05;14.60;;;7.22;;
54193;SDS011;40102;50.906;6.972;2024-03-08T10:20:30;16.45;;;6.93;;
54193;SDS011;40102;50.906;6.972;2024-03-08T10:23:02;14.90;;;7.20;;
54193;SDS011;40102;50.906;6.972;2024-03-08T10:25:30;15.95;;;7.75;;
54193;SDS011;40102;50.906;6.972;2024-03-08T10:27:58;12.27;;;6.75;;
54193;SDS011;40102;50.906;6.972;2024-03-08T10:30:24;12.70;;;6.28;;
54193;SDS011;40102;50.906;6.972;2024-03-08T10:32:49;14.30;;;7.18;;
54193;SDS011;40102;50.906;6.972;2024-03-08T10:35:15;12.23;;;6.47;;
54193;SDS011;40102;50.906;6.972;2024-03-08T10:37:45;12.15;;;6.60;;
54193;SDS011;40102;50.906;6.972;2024-03-08T10:40:19;12.52;;;6.28;;
54193;SDS011;40102;50.906;6.972;2024-03-08T10:43:06;14.05;;;6.28;;
54193;SDS011;40102;50.906;6.972;2024-03-08T10:45:40;13.20;;;6.60;;
54193;SDS011;40102;50.906;6.972;2024-03-08T10:50:59;10.75;;;5.90;;
54193;SDS011;40102;50.906;6.972;2024-03-08T10:53:27;11.07;;;5.82;;
54193;SDS011;40102;50.906;6.972;2024-03-08T10:55:54;11.75;;;6.30;;
54193;SDS011;40102;50.906;6.972;2024-03-08T10:58:22;9.35;;;5.40;;
54193;SDS011;40102;50.906;6.972;2024-03-08T11:00:51;11.25;;;5.40;;
54193;SDS011;40102;50.906;6.972;2024-03-08T11:06:06;13.35;;;6.32;;
54193;SDS011;40102;50.906;6.972;2024-03-08T11:08:35;13.98;;;6.72;;
54193;SDS011;40102;50.906;6.972;2024-03-08T11:11:01;11.50;;;6.05;;
54193;SDS011;40102;50.906;6.972;2024-03-08T11:13:40;12.63;;;6.40;;
54193;SDS011;40102;50.906;6.972;2024-03-08T11:16:12;13.75;;;6.50;;
54193;SDS011;40102;50.906;6.972;2024-03-08T11:21:35;11.65;;;6.07;;
54193;SDS011;40102;50.906;6.972;2024-03-08T11:24:07;12.02;;;6.32;;
54193;SDS011;40102;50.906;6.972;2024-03-08T11:26:38;12.60;;;6.35;;
54193;SDS011;40102;50.906;6.972;2024-03-08T11:34:43;13.35;;;6.45;;
54193;SDS011;40102;50.906;6.972;2024-03-08T11:37:12;12.73;;;6.90;;
54193;SDS011;40102;50.906;6.972;2024-03-08T11:39:40;14.88;;;7.03;;
54193;SDS011;40102;50.906;6.972;2024-03-08T11:42:11;12.35;;;6.65;;
54193;SDS011;40102;50.906;6.972;2024-03-08T11:44:37;11.02;;;6.10;;
54193;SDS011;40102;50.906;6.972;2024-03-08T11:47:02;12.07;;;6.50;;
54193;SDS011;40102;50.906;6.972;2024-03-08T11:49:31;11.63;;;5.75;;
54193;SDS011;40102;50.906;6.972;2024-03-08T11:51:56;12.57;;;6.47;;
54193;SDS011;40102;50.906;6.972;2024-03-08T11:54:22;12.90;;;6.47;;
54193;SDS011;40102;50.906;6.972;2024-03-08T11:56:48;13.63;;;6.78;;
54193;SDS011;40102;50.906;6.972;2024-03-08T11:59:17;11.82;;;6.80;;
54193;SDS011;40102;50.906;6.972;2024-03-08T12:01:42;13.00;;;6.55;;
54193;SDS011;40102;50.906;6.972;2024-03-08T12:04:15;12.70;;;6.55;;
54193;SDS011;40102;50.906;6.972;2024-03-08T12:06:50;14.02;;;6.63;;
54193;SDS011;40102;50.906;6.972;2024-03-08T12:09:15;11.93;;;6.50;;
54193;SDS011;40102;50.906;6.972;2024-03-08T12:11:41;12.13;;;5.47;;
54193;SDS011;40102;50.906;6.972;2024-03-08T12:14:08;11.18;;;6.25;;
54193;SDS011;40102;50.906;6.972;2024-03-08T12:16:36;14.55;;;6.47;;
54193;SDS011;40102;50.906;6.972;2024-03-08T12:19:02;13.55;;;7.47;;
54193;SDS011;40102;50.906;6.972;2024-03-08T12:21:31;14.50;;;7.80;;
54193;SDS011;40102;50.906;6.972;2024-03-08T12:24:04;12.60;;;7.03;;
54193;SDS011;40102;50.906;6.972;2024-03-08T12:26:36;13.32;;;6.47;;
54193;SDS011;40102;50.906;6.972;2024-03-08T12:29:22;11.77;;;6.88;;
54193;SDS011;40102;50.906;6.972;2024-03-08T12:31:53;10.50;;;6.20;;
54193;SDS011;40102;50.906;6.972;2024-03-08T12:34:20;10.82;;;5.43;;
54193;SDS011;40102;50.906;6.972;2024-03-08T12:36:49;14.07;;;6.57;;
54193;SDS011;40102;50.906;6.972;2024-03-08T12:39:19;11.18;;;6.60;;
54193;SDS011;40102;50.906;6.972;2024-03-08T12:41:55;11.35;;;6.72;;
54193;SDS011;40102;50.906;6.972;2024-03-08T12:44:22;13.50;;;6.75;;
54193;SDS011;40102;50.906;6.972;2024-03-08T12:46:48;10.02;;;6.07;;
54193;SDS011;40102;50.906;6.972;2024-03-08T12:49:14;13.20;;;6.13;;
54193;SDS011;40102;50.906;6.972;2024-03-08T12:51:45;11.82;;;6.68;;
54193;SDS011;40102;50.906;6.972;2024-03-08T12:54:11;12.00;;;6.30;;
54193;SDS011;40102;50.906;6.972;2024-03-08T12:56:36;11.20;;;6.00;;
54193;SDS011;40102;50.906;6.972;2024-03-08T12:59:03;10.32;;;5.68;;
54193;SDS011;40102;50.906;6.972;2024-03-08T13:01:30;11.90;;;5.80;;
54193;SDS011;40102;50.906;6.972;2024-03-08T13:03:59;12.03;;;6.17;;
54193;SDS011;40102;50.906;6.972;2024-03-08T13:06:27;10.07;;;5.75;;
54193;SDS011;40102;50.906;6.972;2024-03-08T13:08:53;13.05;;;6.63;;
54193;SDS011;40102;50.906;6.972;2024-03-08T13:11:20;10.70;;;5.90;;
54193;SDS011;40102;50.906;6.972;2024-03-08T13:13:46;10.65;;;5.90;;
54193;SDS011;40102;50.906;6.972;2024-03-08T13:16:12;9.60;;;5.18;;
54193;SDS011;40102;50.906;6.972;2024-03-08T13:18:40;9.88;;;5.90;;
54193;SDS011;40102;50.906;6.972;2024-03-08T13:21:07;10.20;;;5.15;;
54193;SDS011;40102;50.906;6.972;2024-03-08T13:23:34;9.57;;;5.47;;
54193;SDS011;40102;50.906;6.972;2024-03-08T13:26:04;11.75;;;5.95;;
54193;SDS011;40102;50.906;6.972;2024-03-08T13:28:30;19.25;;;5.60;;
54193;SDS011;40102;50.906;6.972;2024-03-08T13:31:01;9.18;;;5.55;;
54193;SDS011;40102;50.906;6.972;2024-03-08T13:33:28;12.32;;;5.28;;
54193;SDS011;40102;50.906;6.972;2024-03-08T13:35:53;10.43;;;5.78;;
54193;SDS011;40102;50.906;6.972;2024-03-08T13:38:18;9.30;;;5.65;;
54193;SDS011;40102;50.906;6.972;2024-03-08T13:40:45;9.77;;;5.30;;
54193;SDS011;40102;50.906;6.972;2024-03-08T13:43:12;11.57;;;5.72;;
54193;SDS011;40102;50.906;6.972;2024-03-08T13:45:38;11.48;;;6.05;;
54193;SDS011;40102;50.906;6.972;2024-03-08T13:48:03;8.57;;;5.57;;
54193;SDS011;40102;50.906;6.972;2024-03-08T13:50:29;9.45;;;5.47;;
54193;SDS011;40102;50.906;6.972;2024-03-08T13:52:55;8.57;;;5.10;;
54193;SDS011;40102;50.906;6.972;2024-03-08T13:55:21;11.02;;;5.97;;
54193;SDS011;40102;50.906;6.972;2024-03-08T13:57:47;8.52;;;4.80;;
54193;SDS011;40102;50.906;6.972;2024-03-08T14:00:13;11.15;;;5.50;;
54193;SDS011;40102;50.906;6.972;2024-03-08T14:02:40;8.93;;;5.65;;
54193;SDS011;40102;50.906;6.972;2024-03-08T14:05:06;9.63;;;5.43;;
54193;SDS011;40102;50.906;6.972;2024-03-08T14:07:34;10.50;;;5.72;;
54193;SDS011;40102;50.906;6.972;2024-03-08T14:09:59;9.02;;;4.95;;
54193;SDS011;40102;50.906;6.972;2024-03-08T14:12:25;10.57;;;5.60;;
54193;SDS011;40102;50.906;6.972;2024-03-08T14:14:51;8.93;;;5.13;;
54193;SDS011;40102;50.906;6.972;2024-03-08T14:17:19;9.82;;;5.35;;
54193;SDS011;40102;50.906;6.972;2024-03-08T14:19:44;8.90;;;5.15;;
54193;SDS011;40102;50.906;6.972;2024-03-08T14:22:12;8.10;;;4.80;;
54193;SDS011;40102;50.906;6.972;2024-03-08T14:24:40;7.45;;;5.05;;
54193;SDS011;40102;50.906;6.972;2024-03-08T14:27:07;10.18;;;5.43;;
54193;SDS011;40102;50.906;6.972;2024-03-08T14:29:34;9.23;;;5.20;;
54193;SDS011;40102;50.906;6.972;2024-03-08T14:31:59;11.98;;;5.38;;
54193;SDS011;40102;50.906;6.972;2024-03-08T14:34:26;11.13;;;5.22;;
54193;SDS011;40102;50.906;6.972;2024-03-08T14:36:53;8.07;;;4.88;;
54193;SDS011;40102;50.906;6.972;2024-03-08T14:39:18;8.75;;;4.95;;